createdAt,value
2022-12-03T00:03:16.385Z,3.40
2022-12-03T00:08:17.747Z,3.54
2022-12-03T00:13:19.049Z,3.71
2022-12-03T00:18:20.304Z,3.82
2022-12-03T00:23:21.529Z,3.82
2022-12-03T00:28:22.763Z,3.87
2022-12-03T00:33:24.000Z,3.41
2022-12-03T00:38:25.216Z,3.50
2022-12-03T00:43:26.499Z,3.35
2022-12-03T00:48:27.815Z,3.58
2022-12-03T00:53:29.080Z,3.72
2022-12-03T00:58:30.327Z,3.59
2022-12-03T01:03:31.528Z,3.68
2022-12-03T01:08:32.729Z,3.82
2022-12-03T01:13:33.994Z,3.72
2022-12-03T01:18:35.267Z,3.77
2022-12-03T01:23:36.574Z,3.65
2022-12-03T01:28:37.851Z,3.50
2022-12-03T01:33:39.108Z,3.22
2022-12-03T01:38:40.468Z,3.55
2022-12-03T01:43:41.750Z,3.44
2022-12-03T01:48:43.064Z,3.31
2022-12-03T01:53:44.357Z,3.30
2022-12-03T01:58:45.613Z,3.41
2022-12-03T02:03:47.017Z,3.65
2022-12-03T02:08:48.275Z,3.46
2022-12-03T02:13:49.755Z,3.29
2022-12-03T02:18:50.998Z,3.23
2022-12-03T02:23:52.312Z,3.31
2022-12-03T02:28:53.571Z,3.32
2022-12-03T02:33:54.857Z,3.42
2022-12-03T02:38:56.065Z,3.57
2022-12-03T02:43:57.324Z,3.68
2022-12-03T02:48:58.576Z,3.33
2022-12-03T02:53:59.828Z,3.23
2022-12-03T02:59:01.234Z,3.18
2022-12-03T03:04:03.281Z,3.30
2022-12-03T03:09:04.562Z,3.68
2022-12-03T03:14:05.829Z,3.85
2022-12-03T03:19:07.046Z,3.71
2022-12-03T03:24:08.417Z,3.20
2022-12-03T03:29:09.672Z,3.25
2022-12-03T03:34:10.978Z,3.28
2022-12-03T03:39:12.430Z,3.26
2022-12-03T03:44:13.665Z,3.49
2022-12-03T03:49:14.908Z,3.39
2022-12-03T03:54:16.205Z,3.29
2022-12-03T03:59:17.649Z,3.33
2022-12-03T04:04:19.689Z,3.27
2022-12-03T04:09:21.061Z,3.50
2022-12-03T04:14:22.264Z,3.54
2022-12-03T04:19:23.517Z,3.31
2022-12-03T04:24:24.728Z,3.53
2022-12-03T04:29:25.979Z,3.34
2022-12-03T04:34:46.174Z,3.26
2022-12-03T04:39:47.383Z,3.17
2022-12-03T04:44:48.581Z,3.18
2022-12-03T04:49:49.808Z,3.38
2022-12-03T04:54:51.376Z,3.50
2022-12-03T04:59:52.825Z,3.75
2022-12-03T05:04:54.400Z,3.78
2022-12-03T05:09:55.914Z,3.54
2022-12-03T05:14:57.150Z,3.35
2022-12-03T05:20:17.292Z,3.35
2022-12-03T05:25:18.504Z,3.17
2022-12-03T05:30:19.869Z,3.26
2022-12-03T05:35:21.143Z,3.32
2022-12-03T05:40:22.522Z,3.33
2022-12-03T05:45:23.926Z,3.30
2022-12-03T05:50:25.188Z,3.36
2022-12-03T05:55:26.480Z,3.41
2022-12-03T06:00:27.776Z,3.42
2022-12-03T06:05:29.070Z,3.44
2022-12-03T06:10:30.423Z,3.19
2022-12-03T06:15:31.847Z,2.94
2022-12-03T06:20:33.170Z,3.11
2022-12-03T06:25:34.456Z,3.39
2022-12-03T06:30:35.942Z,3.12
2022-12-03T06:35:37.227Z,3.08
2022-12-03T06:40:38.552Z,3.09
2022-12-03T06:45:44.558Z,3.14
2022-12-03T06:50:48.793Z,2.87
2022-12-03T06:55:50.098Z,2.81
2022-12-03T07:00:51.461Z,2.57
2022-12-03T07:05:52.828Z,2.64
2022-12-03T07:10:54.275Z,2.49
2022-12-03T07:15:55.595Z,2.36
2022-12-03T07:20:56.877Z,2.54
2022-12-03T07:25:58.140Z,2.42
2022-12-03T07:30:59.462Z,2.65
2022-12-03T07:36:00.765Z,2.61
2022-12-03T07:41:01.988Z,2.63
2022-12-03T07:46:03.278Z,2.56
2022-12-03T07:51:04.567Z,2.70
2022-12-03T07:56:05.884Z,2.86
2022-12-03T08:01:07.332Z,2.80
2022-12-03T08:06:08.645Z,2.72
2022-12-03T08:11:09.986Z,2.62
2022-12-03T08:16:11.366Z,2.72
2022-12-03T08:21:12.644Z,3.01
2022-12-03T08:26:13.891Z,2.86
2022-12-03T08:31:18.550Z,3.07
2022-12-03T08:36:20.386Z,2.99
2022-12-03T08:41:41.625Z,3.01
2022-12-03T08:46:42.847Z,2.85
2022-12-03T08:51:44.386Z,2.71
2022-12-03T08:56:45.675Z,2.99
2022-12-03T09:01:47.049Z,3.04
2022-12-03T09:07:04.204Z,3.10
2022-12-03T09:12:05.458Z,2.83
2022-12-03T09:17:06.744Z,3.07
2022-12-03T09:22:08.113Z,3.09
2022-12-03T09:27:09.382Z,3.21
2022-12-03T09:32:16.677Z,3.46
2022-12-03T09:37:19.449Z,3.45
2022-12-03T09:42:20.678Z,3.20
2022-12-03T09:47:22.120Z,3.06
2022-12-03T09:52:23.496Z,2.99
2022-12-03T09:57:27.302Z,2.89
2022-12-03T10:02:28.614Z,2.87
2022-12-03T10:07:29.938Z,2.96
2022-12-03T10:12:31.222Z,3.10
2022-12-03T10:17:32.436Z,2.94
2022-12-03T10:22:37.281Z,2.76
2022-12-03T10:27:38.580Z,2.99
2022-12-03T10:32:39.923Z,3.18
2022-12-03T10:37:41.166Z,3.23
2022-12-03T10:42:42.567Z,3.43
2022-12-03T10:47:43.925Z,3.56
2022-12-03T10:52:45.254Z,3.42
2022-12-03T10:57:47.259Z,3.14
2022-12-03T11:02:54.824Z,3.27
2022-12-03T11:07:57.961Z,3.21
2022-12-03T11:12:59.274Z,2.95
2022-12-03T11:18:00.721Z,3.33
2022-12-03T11:23:01.950Z,3.35
2022-12-03T11:28:03.381Z,3.19
2022-12-03T11:33:04.725Z,3.28
2022-12-03T11:38:05.933Z,3.04
2022-12-03T11:43:07.124Z,3.10
2022-12-03T11:48:08.452Z,3.26
2022-12-03T11:53:09.738Z,3.47
2022-12-03T11:58:10.971Z,3.43
2022-12-03T12:03:12.394Z,3.71
2022-12-03T12:08:13.713Z,3.98
2022-12-03T12:13:15.054Z,4.03
2022-12-03T12:18:16.334Z,4.14
2022-12-03T12:23:17.606Z,3.85
2022-12-03T12:33:20.862Z,3.84
2022-12-03T12:38:22.218Z,3.81
2022-12-03T12:43:24.587Z,3.61
2022-12-03T12:48:26.183Z,3.64
2022-12-03T12:53:27.443Z,3.65
2022-12-03T12:58:28.660Z,3.60
2022-12-03T13:03:29.894Z,3.71
2022-12-03T13:08:31.129Z,3.59
2022-12-03T13:13:32.418Z,3.69
2022-12-03T13:18:33.758Z,3.59
2022-12-03T13:23:35.028Z,3.38
2022-12-03T13:28:36.305Z,3.52
2022-12-03T13:33:37.506Z,3.70
2022-12-03T13:38:38.760Z,3.69
2022-12-03T13:43:44.332Z,3.71
2022-12-03T13:48:45.979Z,3.43
2022-12-03T13:53:47.255Z,3.66
2022-12-03T13:58:48.489Z,3.54
2022-12-03T14:03:49.714Z,3.82
2022-12-03T14:08:51.429Z,3.75
2022-12-03T14:13:52.638Z,3.78
2022-12-03T14:18:53.876Z,3.76
2022-12-03T14:23:55.097Z,3.74
2022-12-03T14:28:56.386Z,4.39
2022-12-03T14:33:57.706Z,5.36
2022-12-03T14:38:58.974Z,5.32
2022-12-03T14:44:00.224Z,4.96
2022-12-03T14:49:01.478Z,5.37
2022-12-03T14:54:02.769Z,5.22
2022-12-03T14:59:04.063Z,4.84
2022-12-03T15:04:05.326Z,4.24
2022-12-03T15:09:06.647Z,5.02
2022-12-03T15:14:08.278Z,4.47
2022-12-03T15:19:09.699Z,5.38
2022-12-03T15:24:32.981Z,4.71
2022-12-03T15:29:34.256Z,4.29
2022-12-03T15:34:35.677Z,3.87
2022-12-03T15:39:37.613Z,3.96
2022-12-03T15:44:38.890Z,4.01
2022-12-03T15:49:40.132Z,5.71
2022-12-03T15:54:41.395Z,5.05
2022-12-03T15:59:43.219Z,4.74
2022-12-03T16:04:44.493Z,4.20
2022-12-03T16:09:45.946Z,3.90
2022-12-03T16:14:47.194Z,3.55
2022-12-03T16:19:49.088Z,3.79
2022-12-03T16:24:50.517Z,3.55
2022-12-03T16:29:52.006Z,3.82
2022-12-03T16:34:53.522Z,3.76
2022-12-03T16:39:54.973Z,3.76
2022-12-03T16:44:59.450Z,3.66
2022-12-03T16:50:00.809Z,3.53
2022-12-03T16:55:02.078Z,4.75
2022-12-03T17:00:03.474Z,4.11
2022-12-03T17:05:04.741Z,3.72
2022-12-03T17:10:06.077Z,3.53
2022-12-03T17:15:07.316Z,3.41
2022-12-03T17:20:08.720Z,3.48
2022-12-03T17:25:09.933Z,3.40
2022-12-03T17:30:11.213Z,3.45
2022-12-03T17:35:12.484Z,3.37
2022-12-03T17:40:13.716Z,3.38
2022-12-03T17:45:14.912Z,3.72
2022-12-03T17:50:16.124Z,3.54
2022-12-03T17:55:27.704Z,3.30
2022-12-03T18:00:32.524Z,3.18
2022-12-03T18:05:33.746Z,3.32
2022-12-03T18:10:34.988Z,3.52
2022-12-03T18:15:36.280Z,3.25
2022-12-03T18:20:37.485Z,3.51
2022-12-03T18:25:38.996Z,3.57
2022-12-03T18:30:40.332Z,3.47
2022-12-03T18:35:41.546Z,3.54
2022-12-03T18:40:42.792Z,3.55
2022-12-03T18:45:44.015Z,3.59
2022-12-03T18:50:45.334Z,3.75
2022-12-03T18:55:46.621Z,3.53
2022-12-03T19:00:47.940Z,3.22
2022-12-03T19:05:49.295Z,3.53
2022-12-03T19:10:50.504Z,3.65
2022-12-03T19:15:54.849Z,3.35
2022-12-03T19:20:56.224Z,3.34
2022-12-03T19:25:57.510Z,3.53
2022-12-03T19:30:58.881Z,3.42
2022-12-03T19:36:00.097Z,3.32
2022-12-03T19:41:01.312Z,3.26
2022-12-03T19:46:02.682Z,3.18
2022-12-03T19:51:26.611Z,3.27
2022-12-03T19:56:25.273Z,3.45
2022-12-03T20:01:26.614Z,3.39
2022-12-03T20:06:27.980Z,3.43
2022-12-03T20:11:29.267Z,3.55
2022-12-03T20:16:30.537Z,3.42
2022-12-03T20:21:31.887Z,3.05
2022-12-03T20:26:33.145Z,3.22
2022-12-03T20:31:34.545Z,3.11
2022-12-03T20:36:36.009Z,3.38
2022-12-03T20:41:37.529Z,3.42
2022-12-03T20:46:39.069Z,3.33
2022-12-03T20:51:42.339Z,3.43
2022-12-03T20:56:43.740Z,3.33
2022-12-03T21:01:45.167Z,3.19
2022-12-03T21:06:46.904Z,3.30
2022-12-03T21:11:48.862Z,3.13
2022-12-03T21:17:07.859Z,3.21
2022-12-03T21:22:09.994Z,3.12
2022-12-03T21:27:11.278Z,3.24
2022-12-03T21:32:21.613Z,3.16
2022-12-03T21:37:23.022Z,3.28
2022-12-03T21:42:36.013Z,3.45
2022-12-03T21:47:38.274Z,3.65
2022-12-03T21:52:39.588Z,3.49
2022-12-03T21:57:40.859Z,3.40
2022-12-03T22:02:42.221Z,3.63
2022-12-03T22:07:43.634Z,3.41
2022-12-03T22:12:44.916Z,3.36
2022-12-03T22:17:46.136Z,3.46
2022-12-03T22:22:47.384Z,3.49
2022-12-03T22:27:48.648Z,3.69
2022-12-03T22:32:49.879Z,3.68
2022-12-03T22:37:51.128Z,3.75
2022-12-03T22:42:52.377Z,3.60
2022-12-03T22:47:53.645Z,3.49
2022-12-03T22:52:54.909Z,3.47
2022-12-03T22:57:56.204Z,3.45
2022-12-03T23:02:57.566Z,3.58
2022-12-03T23:07:58.928Z,3.69
2022-12-03T23:13:00.271Z,3.38
2022-12-03T23:18:01.550Z,3.59
2022-12-03T23:23:02.805Z,3.75
2022-12-03T23:28:04.111Z,3.90
2022-12-03T23:33:05.427Z,3.78
2022-12-03T23:38:06.736Z,3.50
2022-12-03T23:43:08.026Z,3.37
2022-12-03T23:48:09.308Z,3.61
2022-12-03T23:53:10.683Z,3.87
2022-12-03T23:58:11.930Z,3.79
